Time;durP1;ratioP1;P1;durP2;ratioP2;P2;SDS_P1;SDS_P2;PMS_P1;PMS_P2;Temp;Humidity;BMP_temperature;BMP_pressure;BME280_temperature;BME280_humidity;BME280_pressure;Samples;Min_cycle;Max_cycle;Signal;HPM_P1;HPM_P2
2021/04/30 00:00:38;;;;;;;1.27;1.17;;;;;;;;;;5043262;28;20180;-67
2021/04/30 00:03:04;;;;;;;1.58;1.48;;;;;;;;;;5042467;28;20400;-67
2021/04/30 00:05:31;;;;;;;1.25;1.15;;;;;;;;;;5042061;28;20176;-67
2021/04/30 00:07:58;;;;;;;1.35;1.25;;;;;;;;;;5043628;28;20199;-65
2021/04/30 00:10:24;;;;;;;2.05;1.73;;;;;;;;;;5041723;28;20547;-67
2021/04/30 00:12:50;;;;;;;1.60;1.50;;;;;;;;;;5042100;28;20261;-67
2021/04/30 00:15:17;;;;;;;1.80;1.03;;;;;;;;;;5043925;28;20213;-67
2021/04/30 00:17:43;;;;;;;1.52;1.42;;;;;;;;;;5024136;28;20434;-66
2021/04/30 00:20:09;;;;;;;1.60;1.50;;;;;;;;;;5041365;28;20278;-67
2021/04/30 00:22:35;;;;;;;1.70;1.27;;;;;;;;;;5025760;28;20171;-66
2021/04/30 00:25:01;;;;;;;1.10;0.95;;;;;;;;;;5041822;28;20164;-65
2021/04/30 00:27:27;;;;;;;2.80;1.80;;;;;;;;;;5042350;28;20652;-65
2021/04/30 00:29:53;;;;;;;0.73;0.73;;;;;;;;;;5042945;28;20184;-65
2021/04/30 00:32:19;;;;;;;2.38;2.00;;;;;;;;;;5042873;28;20429;-65
2021/04/30 00:34:45;;;;;;;2.30;1.73;;;;;;;;;;5042030;28;20176;-67
2021/04/30 00:37:11;;;;;;;2.60;2.40;;;;;;;;;;5040637;28;20297;-66
2021/04/30 00:39:37;;;;;;;1.50;1.42;;;;;;;;;;5042031;28;20203;-66
2021/04/30 00:42:04;;;;;;;1.75;1.65;;;;;;;;;;5041582;28;20182;-66
2021/04/30 00:44:30;;;;;;;1.65;1.55;;;;;;;;;;5043452;28;20683;-66
2021/04/30 00:46:57;;;;;;;1.88;1.77;;;;;;;;;;5043014;28;20198;-66
2021/04/30 00:49:23;;;;;;;2.33;2.00;;;;;;;;;;5040738;28;20173;-66
2021/04/30 00:51:49;;;;;;;1.75;1.65;;;;;;;;;;5040090;28;20190;-66
2021/04/30 00:54:15;;;;;;;1.52;1.42;;;;;;;;;;5043454;28;20176;-66
2021/04/30 00:56:41;;;;;;;1.40;1.40;;;;;;;;;;5040889;28;20741;-67
2021/04/30 00:59:07;;;;;;;2.47;1.88;;;;;;;;;;5041217;28;20208;-65
2021/04/30 01:01:34;;;;;;;1.08;1.02;;;;;;;;;;5042610;28;20214;-66
2021/04/30 01:04:00;;;;;;;2.47;2.28;;;;;;;;;;5040764;28;20169;-65
2021/04/30 01:06:26;;;;;;;1.35;1.17;;;;;;;;;;5042605;28;20225;-65
2021/04/30 01:08:52;;;;;;;2.13;2.03;;;;;;;;;;5039298;28;20651;-65
2021/04/30 01:11:18;;;;;;;3.13;2.53;;;;;;;;;;5042623;28;20408;-66
2021/04/30 01:13:44;;;;;;;1.67;1.60;;;;;;;;;;5041016;28;20215;-66
2021/04/30 01:16:10;;;;;;;1.20;1.17;;;;;;;;;;5040892;28;20232;-66
2021/04/30 01:18:43;;;;;;;4.33;1.57;;;;;;;;;;5042641;28;20637;-66
2021/04/30 01:21:10;;;;;;;1.40;1.20;;;;;;;;;;5041973;28;20542;-65
2021/04/30 01:23:44;;;;;;;1.05;0.95;;;;;;;;;;5024984;28;20580;-64
2021/04/30 01:26:10;;;;;;;2.70;1.63;;;;;;;;;;5040522;28;20172;-65
2021/04/30 01:28:36;;;;;;;2.50;2.30;;;;;;;;;;5042576;28;20176;-66
2021/04/30 01:31:03;;;;;;;1.52;1.52;;;;;;;;;;5055157;28;20175;-66
2021/04/30 01:33:29;;;;;;;1.85;1.63;;;;;;;;;;5041289;28;20684;-65
2021/04/30 01:35:55;;;;;;;1.42;1.33;;;;;;;;;;5041075;28;20192;-66
2021/04/30 01:38:21;;;;;;;1.48;1.38;;;;;;;;;;5039290;28;20590;-65
2021/04/30 01:40:47;;;;;;;0.75;0.75;;;;;;;;;;5041526;28;20187;-65
2021/04/30 01:43:17;;;;;;;4.23;2.60;;;;;;;;;;5040446;28;20184;-65
2021/04/30 01:45:52;;;;;;;1.52;1.42;;;;;;;;;;5041940;28;20412;-65
2021/04/30 01:48:22;;;;;;;1.35;1.25;;;;;;;;;;5044029;28;20188;-65
2021/04/30 01:50:49;;;;;;;2.47;2.22;;;;;;;;;;5043253;28;20200;-66
2021/04/30 01:53:16;;;;;;;1.65;1.50;;;;;;;;;;5040004;28;20195;-67
2021/04/30 01:55:42;;;;;;;2.92;1.90;;;;;;;;;;5042430;28;20578;-66
2021/04/30 01:58:09;;;;;;;1.75;1.65;;;;;;;;;;5043744;28;20199;-68
2021/04/30 02:00:36;;;;;;;3.15;2.38;;;;;;;;;;5041506;28;20192;-67
2021/04/30 02:03:02;;;;;;;2.65;0.95;;;;;;;;;;5040170;28;20176;-67
2021/04/30 02:05:29;;;;;;;1.38;1.23;;;;;;;;;;5038679;28;20208;-67
2021/04/30 02:07:59;;;;;;;2.63;2.53;;;;;;;;;;5041981;28;20206;-66
2021/04/30 02:10:25;;;;;;;2.63;1.23;;;;;;;;;;5039210;28;20569;-66
2021/04/30 02:12:52;;;;;;;1.30;1.20;;;;;;;;;;5040403;28;20175;-66
2021/04/30 02:15:19;;;;;;;2.20;2.00;;;;;;;;;;5040675;28;20177;-66
2021/04/30 02:17:45;;;;;;;3.10;1.88;;;;;;;;;;5039962;28;20207;-66
2021/04/30 02:20:12;;;;;;;2.37;2.17;;;;;;;;;;5040621;28;20203;-65
2021/04/30 02:22:38;;;;;;;1.08;1.08;;;;;;;;;;5041292;28;20778;-66
2021/04/30 02:25:05;;;;;;;1.42;1.27;;;;;;;;;;5040176;28;20176;-66
2021/04/30 02:27:31;;;;;;;2.58;2.38;;;;;;;;;;5039425;28;20207;-65
2021/04/30 02:29:57;;;;;;;3.33;1.20;;;;;;;;;;5021642;28;20188;-66
2021/04/30 02:32:23;;;;;;;3.33;1.40;;;;;;;;;;5042545;28;20183;-66
2021/04/30 02:34:50;;;;;;;1.75;1.65;;;;;;;;;;5041643;28;20232;-66
2021/04/30 02:37:16;;;;;;;2.92;2.60;;;;;;;;;;5038999;28;20213;-65
2021/04/30 02:39:42;;;;;;;1.20;1.20;;;;;;;;;;5038847;28;20215;-66
2021/04/30 02:42:08;;;;;;;1.98;1.85;;;;;;;;;;5040704;28;20175;-66
2021/04/30 02:44:34;;;;;;;1.13;1.13;;;;;;;;;;5041013;28;20180;-65
2021/04/30 02:47:00;;;;;;;2.00;1.80;;;;;;;;;;5039766;28;20203;-65
2021/04/30 02:49:39;;;;;;;1.52;1.45;;;;;;;;;;5040269;28;20578;-65
2021/04/30 02:52:05;;;;;;;1.10;1.10;;;;;;;;;;5039529;28;20623;-65
2021/04/30 02:54:31;;;;;;;1.45;1.33;;;;;;;;;;5040941;28;20687;-66
2021/04/30 02:56:57;;;;;;;1.70;1.50;;;;;;;;;;5038948;28;20203;-66
2021/04/30 02:59:23;;;;;;;0.80;0.80;;;;;;;;;;5040980;28;20247;-65
2021/04/30 03:01:50;;;;;;;1.70;1.55;;;;;;;;;;5041414;28;20254;-67
2021/04/30 03:04:16;;;;;;;1.48;1.42;;;;;;;;;;5045155;28;20167;-64
2021/04/30 03:06:42;;;;;;;3.05;1.48;;;;;;;;;;5042757;28;20301;-66
2021/04/30 03:09:08;;;;;;;2.35;2.25;;;;;;;;;;5043584;28;20397;-66
2021/04/30 03:11:34;;;;;;;2.95;1.73;;;;;;;;;;5043195;28;20182;-66
2021/04/30 03:14:00;;;;;;;1.75;1.65;;;;;;;;;;5044114;28;20880;-66
2021/04/30 03:16:26;;;;;;;0.85;0.85;;;;;;;;;;5043485;28;20275;-66
2021/04/30 03:18:52;;;;;;;1.98;1.58;;;;;;;;;;5043784;28;20236;-65
2021/04/30 03:21:18;;;;;;;2.13;1.73;;;;;;;;;;5045545;28;20176;-66
2021/04/30 03:23:44;;;;;;;1.13;1.13;;;;;;;;;;5044484;28;20209;-65
2021/04/30 03:26:10;;;;;;;7.20;1.47;;;;;;;;;;5042687;28;20199;-65
2021/04/30 03:28:36;;;;;;;2.93;2.67;;;;;;;;;;5044135;28;20781;-66
2021/04/30 03:31:02;;;;;;;1.70;1.60;;;;;;;;;;5042243;28;20405;-65
2021/04/30 03:33:28;;;;;;;2.00;1.80;;;;;;;;;;5043068;28;20476;-65
2021/04/30 03:35:54;;;;;;;3.05;2.35;;;;;;;;;;5044560;28;20183;-65
2021/04/30 03:38:20;;;;;;;1.00;0.95;;;;;;;;;;5041815;28;20303;-66
2021/04/30 03:40:46;;;;;;;1.80;1.70;;;;;;;;;;5042029;28;20187;-66
2021/04/30 03:43:12;;;;;;;1.50;1.40;;;;;;;;;;5043998;28;20184;-66
2021/04/30 03:45:38;;;;;;;2.50;1.10;;;;;;;;;;5042583;28;20175;-66
2021/04/30 03:48:04;;;;;;;2.00;1.53;;;;;;;;;;5043902;28;20213;-66
2021/04/30 03:50:31;;;;;;;1.58;1.38;;;;;;;;;;5043164;28;20453;-66
2021/04/30 03:52:57;;;;;;;1.83;1.50;;;;;;;;;;5044039;28;20269;-66
2021/04/30 03:55:23;;;;;;;3.07;2.57;;;;;;;;;;5042843;28;20200;-66
2021/04/30 03:57:49;;;;;;;1.88;1.77;;;;;;;;;;5042501;28;20442;-66
2021/04/30 04:00:15;;;;;;;1.70;1.58;;;;;;;;;;5042946;28;20232;-66
2021/04/30 04:02:41;;;;;;;1.48;1.38;;;;;;;;;;5043671;28;20180;-65
2021/04/30 04:05:07;;;;;;;1.30;1.20;;;;;;;;;;5042956;28;20256;-66
2021/04/30 04:07:34;;;;;;;2.70;2.50;;;;;;;;;;5043293;28;20694;-67
2021/04/30 04:10:00;;;;;;;2.85;1.38;;;;;;;;;;5024364;28;20179;-66
2021/04/30 04:12:25;;;;;;;1.90;1.77;;;;;;;;;;5053198;28;20175;-66
2021/04/30 04:14:52;;;;;;;1.57;1.43;;;;;;;;;;5047968;28;20180;-66
2021/04/30 04:17:18;;;;;;;2.72;1.50;;;;;;;;;;5052986;28;20806;-67
2021/04/30 04:19:50;;;;;;;1.35;1.25;;;;;;;;;;5052682;28;20571;-66
2021/04/30 04:22:19;;;;;;;2.13;2.00;;;;;;;;;;5053575;28;20176;-67
2021/04/30 04:24:45;;;;;;;1.92;1.92;;;;;;;;;;5052793;28;20263;-66
2021/04/30 04:27:11;;;;;;;2.55;2.35;;;;;;;;;;5048690;28;20206;-67
2021/04/30 04:29:38;;;;;;;2.33;2.15;;;;;;;;;;5033079;28;20186;-66
2021/04/30 04:32:07;;;;;;;2.45;2.35;;;;;;;;;;5033944;28;20629;-66
2021/04/30 04:34:33;;;;;;;2.58;1.35;;;;;;;;;;5033812;28;20191;-66
2021/04/30 04:36:59;;;;;;;2.17;2.07;;;;;;;;;;5033484;28;20224;-66
2021/04/30 04:39:25;;;;;;;4.75;3.25;;;;;;;;;;5032922;28;20902;-67
2021/04/30 04:41:52;;;;;;;4.00;1.95;;;;;;;;;;5039066;28;20176;-67
2021/04/30 04:44:18;;;;;;;2.42;2.22;;;;;;;;;;5039734;28;20179;-66
2021/04/30 04:46:44;;;;;;;2.10;2.00;;;;;;;;;;5036014;28;20565;-65
2021/04/30 04:49:10;;;;;;;3.25;3.05;;;;;;;;;;5036095;28;20242;-67
2021/04/30 04:51:36;;;;;;;2.28;2.08;;;;;;;;;;5034726;28;20183;-67
2021/04/30 04:54:02;;;;;;;2.05;1.80;;;;;;;;;;5048015;28;20176;-66
2021/04/30 04:56:28;;;;;;;3.25;2.90;;;;;;;;;;5053122;28;20226;-67
2021/04/30 04:58:54;;;;;;;1.83;1.83;;;;;;;;;;5043870;28;20201;-66
2021/04/30 05:01:21;;;;;;;1.65;1.55;;;;;;;;;;5033188;28;20533;-65
2021/04/30 05:03:47;;;;;;;2.83;2.40;;;;;;;;;;5033215;28;20175;-66
2021/04/30 05:06:13;;;;;;;2.55;1.55;;;;;;;;;;5033023;28;20238;-66
2021/04/30 05:08:39;;;;;;;1.52;1.17;;;;;;;;;;5032727;28;20177;-66
2021/04/30 05:11:05;;;;;;;4.05;2.22;;;;;;;;;;5030495;28;20219;-66
2021/04/30 05:13:32;;;;;;;1.90;1.35;;;;;;;;;;5044615;28;20175;-66
2021/04/30 05:15:59;;;;;;;2.13;2.00;;;;;;;;;;5037379;28;20290;-66
2021/04/30 05:18:25;;;;;;;1.38;1.27;;;;;;;;;;5042291;28;20206;-66
2021/04/30 05:20:51;;;;;;;1.92;1.67;;;;;;;;;;5051804;28;20642;-66
2021/04/30 05:23:17;;;;;;;2.67;2.47;;;;;;;;;;5039229;28;20223;-67
2021/04/30 05:25:44;;;;;;;2.15;1.83;;;;;;;;;;5050826;28;20179;-67
2021/04/30 05:28:10;;;;;;;3.30;2.60;;;;;;;;;;5048187;28;20191;-66
2021/04/30 05:30:36;;;;;;;3.00;2.85;;;;;;;;;;5043845;28;20233;-67
2021/04/30 05:33:02;;;;;;;2.15;1.95;;;;;;;;;;5049662;28;20204;-66
2021/04/30 05:35:28;;;;;;;3.45;2.88;;;;;;;;;;5052483;28;20596;-67
2021/04/30 05:37:54;;;;;;;1.90;1.65;;;;;;;;;;5060729;22;20227;-63
2021/04/30 05:40:20;;;;;;;2.15;2.05;;;;;;;;;;5031738;28;20216;-63
2021/04/30 05:42:46;;;;;;;2.30;2.20;;;;;;;;;;5013946;28;20186;-63
2021/04/30 05:45:13;;;;;;;2.10;1.60;;;;;;;;;;5030778;28;20422;-64
2021/04/30 05:47:39;;;;;;;1.02;1.02;;;;;;;;;;5031602;28;20574;-64
2021/04/30 05:50:05;;;;;;;2.67;2.47;;;;;;;;;;5031316;28;20183;-64
2021/04/30 05:52:31;;;;;;;3.05;2.30;;;;;;;;;;5032152;28;20176;-63
2021/04/30 05:54:57;;;;;;;1.70;1.60;;;;;;;;;;5031828;28;20180;-64
2021/04/30 05:57:23;;;;;;;2.45;1.83;;;;;;;;;;5031778;28;20214;-64
2021/04/30 05:59:49;;;;;;;2.73;1.77;;;;;;;;;;5031220;28;20195;-62
2021/04/30 06:02:15;;;;;;;3.30;2.53;;;;;;;;;;5031764;28;20408;-64
2021/04/30 06:04:41;;;;;;;2.93;2.73;;;;;;;;;;5031921;28;20403;-64
2021/04/30 06:07:07;;;;;;;2.83;2.60;;;;;;;;;;5031767;28;20409;-64
2021/04/30 06:09:33;;;;;;;2.70;1.73;;;;;;;;;;5031143;28;20414;-63
2021/04/30 06:11:59;;;;;;;3.28;2.92;;;;;;;;;;5029031;28;20174;-63
2021/04/30 06:14:33;;;;;;;2.90;1.63;;;;;;;;;;5031385;28;20598;-63
2021/04/30 06:16:59;;;;;;;1.95;1.85;;;;;;;;;;5031261;28;20775;-64
2021/04/30 06:19:25;;;;;;;1.33;1.23;;;;;;;;;;5035307;28;20257;-64
2021/04/30 06:21:51;;;;;;;2.22;1.58;;;;;;;;;;5051207;28;20175;-64
2021/04/30 06:24:18;;;;;;;1.17;1.17;;;;;;;;;;5051199;28;20178;-63
2021/04/30 06:26:44;;;;;;;3.00;2.88;;;;;;;;;;5051099;28;20543;-64
2021/04/30 06:29:10;;;;;;;2.55;1.70;;;;;;;;;;5050312;28;21023;-64
2021/04/30 06:31:36;;;;;;;2.03;1.88;;;;;;;;;;5050777;28;20175;-64
2021/04/30 06:34:03;;;;;;;1.98;1.88;;;;;;;;;;5051109;28;20180;-64
2021/04/30 06:36:29;;;;;;;2.78;1.75;;;;;;;;;;5050782;28;20207;-64
2021/04/30 06:38:55;;;;;;;2.33;1.52;;;;;;;;;;5050096;28;20728;-63
2021/04/30 06:41:21;;;;;;;3.23;1.70;;;;;;;;;;5051018;28;20174;-64
2021/04/30 06:43:47;;;;;;;2.30;2.20;;;;;;;;;;5050527;28;20755;-63
2021/04/30 06:46:13;;;;;;;2.63;2.05;;;;;;;;;;5050892;28;20409;-63
2021/04/30 06:48:39;;;;;;;1.85;1.35;;;;;;;;;;5050756;28;20203;-64
2021/04/30 06:51:05;;;;;;;2.40;1.60;;;;;;;;;;5050405;28;20226;-64
2021/04/30 06:53:31;;;;;;;3.35;3.05;;;;;;;;;;5051422;28;20414;-63
2021/04/30 06:55:57;;;;;;;3.22;2.55;;;;;;;;;;5050564;28;20171;-64
2021/04/30 06:58:23;;;;;;;5.10;1.98;;;;;;;;;;5051429;28;20188;-63
2021/04/30 07:00:49;;;;;;;2.50;1.83;;;;;;;;;;5051070;28;20210;-63
2021/04/30 07:03:15;;;;;;;1.48;1.38;;;;;;;;;;5051440;28;20250;-63
2021/04/30 07:05:41;;;;;;;2.28;1.30;;;;;;;;;;5050773;28;20229;-64
2021/04/30 07:08:07;;;;;;;3.10;1.90;;;;;;;;;;5050358;28;20651;-63
2021/04/30 07:10:35;;;;;;;2.42;1.73;;;;;;;;;;5050089;28;20442;-63
2021/04/30 07:13:01;;;;;;;1.77;1.63;;;;;;;;;;5050701;28;20175;-63
2021/04/30 07:15:27;;;;;;;5.43;3.37;;;;;;;;;;5050780;28;20187;-63
2021/04/30 07:17:53;;;;;;;1.40;1.40;;;;;;;;;;5050573;28;20539;-64
2021/04/30 07:20:19;;;;;;;3.67;1.30;;;;;;;;;;5034200;28;20207;-63
2021/04/30 07:22:45;;;;;;;3.22;2.35;;;;;;;;;;5030526;28;20222;-64
2021/04/30 07:25:11;;;;;;;1.63;1.50;;;;;;;;;;5030427;28;20651;-64
2021/04/30 07:27:37;;;;;;;1.30;1.20;;;;;;;;;;5030802;28;20250;-63
2021/04/30 07:30:05;;;;;;;2.53;2.42;;;;;;;;;;5029656;28;20649;-63
2021/04/30 07:32:31;;;;;;;2.42;2.15;;;;;;;;;;5030040;28;20229;-63
2021/04/30 07:34:57;;;;;;;3.47;2.10;;;;;;;;;;5030340;28;20594;-64
2021/04/30 07:37:23;;;;;;;1.27;1.27;;;;;;;;;;5030060;28;20197;-64
2021/04/30 07:39:49;;;;;;;1.90;1.80;;;;;;;;;;5029559;28;20455;-64
2021/04/30 07:42:15;;;;;;;1.95;1.75;;;;;;;;;;5030200;28;20176;-63
2021/04/30 07:44:42;;;;;;;2.45;1.50;;;;;;;;;;5029868;28;20168;-61
2021/04/30 07:47:08;;;;;;;1.63;1.55;;;;;;;;;;5030303;28;20169;-64
2021/04/30 07:49:34;;;;;;;1.73;1.20;;;;;;;;;;5033210;28;20183;-63
2021/04/30 07:52:00;;;;;;;2.95;2.72;;;;;;;;;;5034063;28;20187;-63
2021/04/30 07:54:26;;;;;;;1.63;1.45;;;;;;;;;;5033634;28;20181;-64
2021/04/30 07:56:52;;;;;;;5.25;2.38;;;;;;;;;;5033363;28;20632;-63
2021/04/30 07:59:18;;;;;;;2.00;1.55;;;;;;;;;;5033035;28;20321;-64
2021/04/30 08:01:44;;;;;;;1.45;1.35;;;;;;;;;;5033738;28;20176;-64
2021/04/30 08:04:10;;;;;;;2.03;1.52;;;;;;;;;;5033617;28;20638;-64
2021/04/30 08:06:38;;;;;;;2.25;2.08;;;;;;;;;;5033289;28;20165;-63
2021/04/30 08:09:04;;;;;;;1.30;1.30;;;;;;;;;;5032442;28;20196;-64
2021/04/30 08:11:31;;;;;;;3.50;2.33;;;;;;;;;;5033385;28;20242;-63
2021/04/30 08:13:57;;;;;;;3.67;2.20;;;;;;;;;;5033291;28;20181;-63
2021/04/30 08:16:23;;;;;;;1.80;1.70;;;;;;;;;;5033398;28;20172;-63
2021/04/30 08:18:49;;;;;;;4.20;2.55;;;;;;;;;;5032746;28;20430;-64
2021/04/30 08:21:15;;;;;;;5.97;2.15;;;;;;;;;;5032966;28;20227;-64
2021/04/30 08:23:41;;;;;;;3.35;2.15;;;;;;;;;;5033147;28;20164;-64
2021/04/30 08:26:07;;;;;;;3.90;3.60;;;;;;;;;;5033033;28;20718;-64
2021/04/30 08:28:33;;;;;;;1.90;1.77;;;;;;;;;;5032964;28;20188;-64
2021/04/30 08:30:59;;;;;;;2.55;1.77;;;;;;;;;;5032375;28;20173;-64
2021/04/30 08:33:26;;;;;;;1.23;1.13;;;;;;;;;;5032908;28;20180;-64
2021/04/30 08:35:53;;;;;;;2.15;1.30;;;;;;;;;;5032920;28;20414;-64
2021/04/30 08:38:19;;;;;;;2.20;1.98;;;;;;;;;;5032582;28;20222;-64
2021/04/30 08:40:46;;;;;;;1.83;1.73;;;;;;;;;;5031848;28;20258;-63
2021/04/30 08:43:12;;;;;;;1.73;1.58;;;;;;;;;;5032888;28;20169;-64
2021/04/30 08:45:40;;;;;;;3.20;1.60;;;;;;;;;;5032458;28;20181;-64
2021/04/30 08:48:11;;;;;;;1.50;1.42;;;;;;;;;;5032627;28;20188;-64
2021/04/30 08:50:37;;;;;;;2.03;1.92;;;;;;;;;;5014591;28;20186;-64
2021/04/30 08:53:06;;;;;;;1.92;1.83;;;;;;;;;;5032603;28;20188;-64
2021/04/30 08:55:33;;;;;;;1.88;1.77;;;;;;;;;;5032729;28;20223;-64
2021/04/30 08:57:59;;;;;;;2.15;2.03;;;;;;;;;;5032118;28;20197;-64
2021/04/30 09:00:28;;;;;;;1.98;1.88;;;;;;;;;;5031797;28;20307;-64
2021/04/30 09:02:55;;;;;;;3.60;2.20;;;;;;;;;;5032446;28;20303;-64
2021/04/30 09:05:29;;;;;;;1.65;1.55;;;;;;;;;;5032406;28;20184;-63
2021/04/30 09:07:56;;;;;;;1.40;1.30;;;;;;;;;;5032256;28;20201;-64
2021/04/30 09:10:22;;;;;;;3.80;2.80;;;;;;;;;;5031467;28;20311;-64
2021/04/30 09:13:04;;;;;;;6.28;2.63;;;;;;;;;;5032305;28;20255;-64
2021/04/30 09:15:30;;;;;;;2.67;2.13;;;;;;;;;;5032172;28;20263;-64
2021/04/30 09:18:13;;;;;;;1.33;1.25;;;;;;;;;;5032007;28;20216;-64
2021/04/30 09:20:40;;;;;;;1.85;1.75;;;;;;;;;;5031143;28;20758;-64
2021/04/30 09:23:25;;;;;;;2.50;1.88;;;;;;;;;;5032096;28;20181;-63
2021/04/30 09:25:52;;;;;;;3.78;3.17;;;;;;;;;;5031847;28;20702;-62
2021/04/30 09:28:18;;;;;;;4.22;2.78;;;;;;;;;;5031531;28;20196;-63
2021/04/30 09:30:44;;;;;;;7.32;3.55;;;;;;;;;;5031212;28;20207;-63
2021/04/30 09:33:17;;;;;;;2.97;2.77;;;;;;;;;;5031943;28;20207;-63
2021/04/30 09:35:45;;;;;;;2.80;1.63;;;;;;;;;;5032223;28;20402;-64
2021/04/30 09:38:34;;;;;;;3.50;3.22;;;;;;;;;;5031816;28;20209;-64
2021/04/30 09:41:07;;;;;;;1.80;1.70;;;;;;;;;;5003429;28;20588;-64
2021/04/30 09:43:43;;;;;;;3.53;2.65;;;;;;;;;;5032115;28;20184;-63
2021/04/30 09:46:28;;;;;;;1.90;1.75;;;;;;;;;;5031637;28;20173;-64
2021/04/30 09:49:16;;;;;;;2.83;2.63;;;;;;;;;;5031122;28;20603;-63
2021/04/30 09:51:44;;;;;;;1.70;1.60;;;;;;;;;;5031906;28;20188;-64
2021/04/30 09:54:22;;;;;;;2.58;2.38;;;;;;;;;;5031775;28;20260;-64
2021/04/30 09:56:49;;;;;;;2.50;2.30;;;;;;;;;;5031774;28;20263;-64
2021/04/30 09:59:25;;;;;;;2.65;2.45;;;;;;;;;;5030660;28;20200;-64
2021/04/30 10:02:01;;;;;;;3.92;2.88;;;;;;;;;;5031558;28;20172;-63
2021/04/30 10:04:31;;;;;;;2.25;2.05;;;;;;;;;;5031675;28;20176;-63
2021/04/30 10:06:57;;;;;;;3.55;3.35;;;;;;;;;;5031404;28;20165;-64
2021/04/30 10:09:26;;;;;;;2.90;2.70;;;;;;;;;;5030372;28;20216;-63
2021/04/30 10:11:52;;;;;;;1.60;1.55;;;;;;;;;;5029790;28;20184;-63
2021/04/30 10:14:18;;;;;;;2.50;2.30;;;;;;;;;;5030946;28;20358;-63
2021/04/30 10:16:44;;;;;;;2.17;2.00;;;;;;;;;;5031039;28;20176;-64
2021/04/30 10:19:10;;;;;;;3.20;2.60;;;;;;;;;;5030324;28;20973;-63
2021/04/30 10:21:40;;;;;;;4.00;2.15;;;;;;;;;;5031037;28;20229;-63
2021/04/30 10:24:09;;;;;;;4.55;2.53;;;;;;;;;;5031236;28;20168;-63
2021/04/30 10:26:35;;;;;;;3.20;2.63;;;;;;;;;;5030971;28;20183;-64
2021/04/30 10:29:02;;;;;;;5.28;1.67;;;;;;;;;;5030400;28;20689;-64
2021/04/30 10:31:30;;;;;;;3.33;1.88;;;;;;;;;;5031062;28;20176;-63
2021/04/30 10:34:01;;;;;;;4.00;3.65;;;;;;;;;;5030681;28;20718;-64
2021/04/30 10:36:31;;;;;;;3.60;3.10;;;;;;;;;;5030822;28;20543;-63
2021/04/30 10:38:58;;;;;;;6.50;2.88;;;;;;;;;;5030171;28;20583;-64
2021/04/30 10:41:28;;;;;;;3.20;1.42;;;;;;;;;;5030822;28;20235;-63
2021/04/30 10:44:11;;;;;;;6.13;2.75;;;;;;;;;;5030854;28;20179;-64
2021/04/30 10:46:37;;;;;;;2.13;2.03;;;;;;;;;;5030341;28;20208;-64
2021/04/30 10:49:06;;;;;;;2.75;2.55;;;;;;;;;;5030602;28;20578;-63
2021/04/30 10:51:33;;;;;;;3.38;3.08;;;;;;;;;;5031107;28;20183;-63
2021/04/30 10:54:22;;;;;;;3.20;1.98;;;;;;;;;;5030980;28;20184;-64
2021/04/30 10:57:00;;;;;;;3.83;3.50;;;;;;;;;;5031095;28;20231;-64
2021/04/30 10:59:36;;;;;;;3.15;2.95;;;;;;;;;;5029952;28;20814;-64
2021/04/30 11:02:17;;;;;;;2.97;2.78;;;;;;;;;;5030930;28;20173;-63
2021/04/30 11:05:02;;;;;;;1.92;1.70;;;;;;;;;;5030870;28;20465;-63
2021/04/30 11:07:28;;;;;;;6.30;4.45;;;;;;;;;;5030695;28;20626;-63
2021/04/30 11:09:54;;;;;;;1.35;1.35;;;;;;;;;;5030126;28;20543;-63
2021/04/30 11:12:24;;;;;;;3.30;3.00;;;;;;;;;;5011715;28;20187;-63
2021/04/30 11:15:02;;;;;;;4.13;3.88;;;;;;;;;;5031277;28;20266;-63
2021/04/30 11:17:46;;;;;;;2.90;2.70;;;;;;;;;;5031391;28;20235;-63
2021/04/30 11:20:17;;;;;;;1.73;1.63;;;;;;;;;;5030029;28;20692;-63
2021/04/30 11:22:43;;;;;;;2.50;2.33;;;;;;;;;;5031552;28;20180;-63
2021/04/30 11:25:14;;;;;;;4.28;3.00;;;;;;;;;;5016590;28;20190;-63
2021/04/30 11:27:40;;;;;;;2.08;1.98;;;;;;;;;;5034250;28;20188;-63
2021/04/30 11:30:20;;;;;;;2.85;2.65;;;;;;;;;;5033605;28;20210;-63
2021/04/30 11:32:49;;;;;;;3.95;3.20;;;;;;;;;;5034242;28;20547;-64
2021/04/30 11:35:15;;;;;;;2.40;1.88;;;;;;;;;;5033730;28;20628;-63
2021/04/30 11:40:13;;;;;;;3.60;3.13;;;;;;;;;;5034058;28;20223;-66
2021/04/30 11:42:39;;;;;;;2.70;2.63;;;;;;;;;;5034047;28;20171;-65
2021/04/30 11:45:06;;;;;;;3.10;3.00;;;;;;;;;;5034247;28;20176;-66
2021/04/30 11:47:33;;;;;;;1.13;1.10;;;;;;;;;;5033634;28;20186;-66
2021/04/30 11:50:00;;;;;;;2.85;2.33;;;;;;;;;;5013456;28;20179;-65
2021/04/30 11:52:29;;;;;;;3.50;3.17;;;;;;;;;;5014090;28;20177;-65
2021/04/30 11:55:01;;;;;;;2.42;1.95;;;;;;;;;;5014243;28;20616;-66
2021/04/30 11:57:28;;;;;;;2.63;2.42;;;;;;;;;;5012884;28;20167;-67
2021/04/30 11:59:55;;;;;;;1.58;1.48;;;;;;;;;;5013186;28;20211;-67
2021/04/30 12:02:24;;;;;;;3.47;3.08;;;;;;;;;;5014066;28;20210;-66
2021/04/30 12:05:00;;;;;;;1.90;1.85;;;;;;;;;;5014031;28;20212;-65
2021/04/30 12:07:26;;;;;;;2.75;2.03;;;;;;;;;;5013998;28;20690;-66
2021/04/30 12:09:53;;;;;;;5.18;4.35;;;;;;;;;;4995637;28;20589;-66
2021/04/30 12:12:21;;;;;;;2.65;2.40;;;;;;;;;;5013641;28;20614;-67
2021/04/30 12:14:50;;;;;;;1.70;1.60;;;;;;;;;;5013908;28;20172;-67
2021/04/30 12:17:20;;;;;;;2.85;2.22;;;;;;;;;;4995504;28;20728;-66
2021/04/30 12:19:56;;;;;;;1.20;1.20;;;;;;;;;;5011469;28;20199;-66
2021/04/30 12:22:22;;;;;;;3.03;1.73;;;;;;;;;;5013916;28;20171;-65
2021/04/30 12:24:48;;;;;;;3.30;3.08;;;;;;;;;;5013548;28;20179;-66
2021/04/30 12:27:30;;;;;;;1.08;1.08;;;;;;;;;;5013647;28;20555;-66
2021/04/30 12:29:56;;;;;;;2.35;2.15;;;;;;;;;;5013103;28;20258;-65
2021/04/30 12:32:23;;;;;;;2.17;2.08;;;;;;;;;;5013551;28;20183;-67
2021/04/30 12:34:49;;;;;;;1.55;1.48;;;;;;;;;;5013004;28;20542;-67
2021/04/30 12:37:15;;;;;;;1.90;1.80;;;;;;;;;;5013422;28;20190;-64
2021/04/30 12:39:42;;;;;;;2.75;2.50;;;;;;;;;;4995525;28;20686;-67
2021/04/30 12:42:08;;;;;;;5.28;2.20;;;;;;;;;;5013424;28;20184;-66
2021/04/30 12:44:34;;;;;;;4.32;2.22;;;;;;;;;;5013705;28;20795;-65
2021/04/30 12:47:04;;;;;;;1.60;1.60;;;;;;;;;;5013398;28;20256;-66
2021/04/30 12:49:34;;;;;;;2.67;2.28;;;;;;;;;;5012717;28;20196;-62
2021/04/30 12:52:03;;;;;;;1.77;1.67;;;;;;;;;;5013406;28;20181;-67
2021/04/30 12:54:33;;;;;;;2.40;2.30;;;;;;;;;;5013265;28;20255;-66
2021/04/30 12:57:00;;;;;;;2.65;2.42;;;;;;;;;;5013084;28;20174;-66
2021/04/30 12:59:26;;;;;;;1.50;1.40;;;;;;;;;;5012221;28;20291;-67
2021/04/30 13:02:11;;;;;;;2.67;2.33;;;;;;;;;;5012854;28;20178;-65
2021/04/30 13:04:49;;;;;;;1.83;1.30;;;;;;;;;;5013267;28;20312;-65
2021/04/30 13:07:15;;;;;;;2.08;2.00;;;;;;;;;;5013029;28;20208;-65
2021/04/30 13:09:42;;;;;;;1.65;1.55;;;;;;;;;;5012143;28;20208;-66
2021/04/30 13:12:12;;;;;;;1.63;1.63;;;;;;;;;;5012834;28;20175;-65
2021/04/30 13:14:41;;;;;;;2.78;2.63;;;;;;;;;;5012671;28;20231;-65
2021/04/30 13:17:16;;;;;;;2.63;2.53;;;;;;;;;;5012636;28;20171;-64
2021/04/30 13:19:42;;;;;;;1.45;1.38;;;;;;;;;;5012049;28;20675;-65
2021/04/30 13:22:16;;;;;;;6.15;3.63;;;;;;;;;;4995730;28;20642;-64
2021/04/30 13:24:42;;;;;;;1.90;1.80;;;;;;;;;;5012477;28;20694;-64
2021/04/30 13:27:12;;;;;;;2.00;1.88;;;;;;;;;;5013045;28;20174;-66
2021/04/30 13:29:39;;;;;;;3.72;3.53;;;;;;;;;;5012211;28;20206;-65
2021/04/30 13:32:07;;;;;;;1.75;1.65;;;;;;;;;;5012760;28;20179;-65
2021/04/30 13:34:38;;;;;;;1.75;1.42;;;;;;;;;;5012639;28;20266;-66
2021/04/30 13:37:04;;;;;;;3.25;3.08;;;;;;;;;;5012194;28;20234;-66
2021/04/30 13:39:32;;;;;;;2.15;1.55;;;;;;;;;;5011398;28;20236;-65
2021/04/30 13:41:59;;;;;;;2.08;1.80;;;;;;;;;;5012614;28;20560;-65
2021/04/30 13:44:25;;;;;;;1.88;1.77;;;;;;;;;;5012041;28;20169;-65
2021/04/30 13:46:55;;;;;;;2.80;2.45;;;;;;;;;;5011670;28;20247;-65
2021/04/30 13:49:21;;;;;;;1.70;1.60;;;;;;;;;;5011148;28;20207;-65
2021/04/30 13:51:47;;;;;;;2.88;2.60;;;;;;;;;;5012246;28;20600;-65
2021/04/30 13:54:13;;;;;;;2.83;2.53;;;;;;;;;;5012187;28;20170;-65
2021/04/30 13:56:40;;;;;;;2.05;1.90;;;;;;;;;;5012211;28;20262;-65
2021/04/30 13:59:06;;;;;;;3.20;2.05;;;;;;;;;;5011189;28;20208;-65
2021/04/30 14:01:33;;;;;;;2.83;2.38;;;;;;;;;;5011776;28;20623;-65
2021/04/30 14:03:59;;;;;;;3.17;2.97;;;;;;;;;;5011997;28;20244;-66
2021/04/30 14:06:26;;;;;;;1.83;1.73;;;;;;;;;;5011704;28;20228;-65
2021/04/30 14:08:53;;;;;;;3.40;3.30;;;;;;;;;;4993514;28;20565;-64
2021/04/30 14:11:19;;;;;;;4.00;3.70;;;;;;;;;;5011853;28;20178;-66
2021/04/30 14:13:45;;;;;;;2.05;1.95;;;;;;;;;;5011313;28;20197;-66
2021/04/30 14:16:11;;;;;;;4.65;3.95;;;;;;;;;;5011781;28;20169;-66
2021/04/30 14:18:38;;;;;;;2.58;2.47;;;;;;;;;;5011573;28;20184;-67
2021/04/30 14:21:04;;;;;;;1.55;1.55;;;;;;;;;;5010925;28;20545;-64
2021/04/30 14:23:30;;;;;;;3.50;2.92;;;;;;;;;;5011546;28;20663;-66
2021/04/30 14:25:56;;;;;;;2.92;2.63;;;;;;;;;;5022485;28;20187;-65
2021/04/30 14:28:22;;;;;;;1.50;1.40;;;;;;;;;;5031051;28;20548;-65
2021/04/30 14:30:48;;;;;;;1.87;1.77;;;;;;;;;;5029868;28;20193;-65
2021/04/30 14:33:14;;;;;;;1.70;1.60;;;;;;;;;;5030983;28;20411;-65
2021/04/30 14:35:40;;;;;;;2.28;1.75;;;;;;;;;;5030761;28;20675;-66
2021/04/30 14:38:06;;;;;;;1.80;1.70;;;;;;;;;;5030415;28;20223;-65
2021/04/30 14:40:32;;;;;;;1.70;1.60;;;;;;;;;;5030175;28;20205;-64
2021/04/30 14:42:58;;;;;;;2.88;2.67;;;;;;;;;;5031148;28;20210;-64
2021/04/30 14:45:24;;;;;;;3.30;1.80;;;;;;;;;;5030903;28;20180;-65
2021/04/30 14:47:50;;;;;;;2.95;2.70;;;;;;;;;;5030535;28;20446;-65